sensor_id;sensor_type;location;lat;lon;timestamp;P1;durP1;ratioP1;P2;durP2;ratioP2
2892;SDS011;1456;51.840;12.184;2022-12-29T00:00:02;0.30;;;0.20;;
2892;SDS011;1456;51.840;12.184;2022-12-29T00:02:31;0.30;;;0.30;;
2892;SDS011;1456;51.840;12.184;2022-12-29T00:04:58;0.30;;;0.20;;
2892;SDS011;1456;51.840;12.184;2022-12-29T00:07:24;3.43;;;0.43;;
2892;SDS011;1456;51.840;12.184;2022-12-29T00:09:50;0.30;;;0.30;;
2892;SDS011;1456;51.840;12.184;2022-12-29T00:12:16;0.43;;;0.43;;
2892;SDS011;1456;51.840;12.184;2022-12-29T00:14:42;0.30;;;0.30;;
2892;SDS011;1456;51.840;12.184;2022-12-29T00:17:26;0.40;;;0.40;;
2892;SDS011;1456;51.840;12.184;2022-12-29T00:19:52;0.30;;;0.20;;
2892;SDS011;1456;51.840;12.184;2022-12-29T00:22:36;0.40;;;0.33;;
2892;SDS011;1456;51.840;12.184;2022-12-29T00:25:21;0.50;;;0.50;;
2892;SDS011;1456;51.840;12.184;2022-12-29T00:28:11;0.30;;;0.30;;
2892;SDS011;1456;51.840;12.184;2022-12-29T00:30:59;0.30;;;0.20;;
2892;SDS011;1456;51.840;12.184;2022-12-29T00:33:44;0.40;;;0.40;;
2892;SDS011;1456;51.840;12.184;2022-12-29T00:36:32;0.70;;;0.53;;
2892;SDS011;1456;51.840;12.184;2022-12-29T00:39:02;0.40;;;0.40;;
2892;SDS011;1456;51.840;12.184;2022-12-29T00:41:50;0.30;;;0.30;;
2892;SDS011;1456;51.840;12.184;2022-12-29T00:44:34;0.53;;;0.53;;
2892;SDS011;1456;51.840;12.184;2022-12-29T00:46:59;0.40;;;0.40;;
2892;SDS011;1456;51.840;12.184;2022-12-29T00:49:29;0.60;;;0.60;;
2892;SDS011;1456;51.840;12.184;2022-12-29T00:52:14;0.30;;;0.30;;
2892;SDS011;1456;51.840;12.184;2022-12-29T00:54:40;0.60;;;0.60;;
2892;SDS011;1456;51.840;12.184;2022-12-29T00:57:07;0.20;;;0.20;;
2892;SDS011;1456;51.840;12.184;2022-12-29T00:59:37;0.50;;;0.50;;
2892;SDS011;1456;51.840;12.184;2022-12-29T01:02:04;0.30;;;0.30;;
2892;SDS011;1456;51.840;12.184;2022-12-29T01:04:30;0.63;;;0.43;;
2892;SDS011;1456;51.840;12.184;2022-12-29T01:06:57;0.20;;;0.20;;
2892;SDS011;1456;51.840;12.184;2022-12-29T01:09:22;0.47;;;0.47;;
2892;SDS011;1456;51.840;12.184;2022-12-29T01:12:09;0.70;;;0.53;;
2892;SDS011;1456;51.840;12.184;2022-12-29T01:14:38;0.30;;;0.30;;
2892;SDS011;1456;51.840;12.184;2022-12-29T01:17:04;0.30;;;0.30;;
2892;SDS011;1456;51.840;12.184;2022-12-29T01:19:30;0.30;;;0.30;;
2892;SDS011;1456;51.840;12.184;2022-12-29T01:21:56;3.50;;;1.57;;
2892;SDS011;1456;51.840;12.184;2022-12-29T01:24:22;0.20;;;0.20;;
2892;SDS011;1456;51.840;12.184;2022-12-29T01:26:47;0.20;;;0.20;;
2892;SDS011;1456;51.840;12.184;2022-12-29T01:29:13;0.37;;;0.37;;
2892;SDS011;1456;51.840;12.184;2022-12-29T01:31:40;0.30;;;0.30;;
2892;SDS011;1456;51.840;12.184;2022-12-29T01:34:08;0.30;;;0.30;;
2892;SDS011;1456;51.840;12.184;2022-12-29T01:36:34;0.53;;;0.53;;
2892;SDS011;1456;51.840;12.184;2022-12-29T01:39:00;1.60;;;0.50;;
2892;SDS011;1456;51.840;12.184;2022-12-29T01:41:26;0.37;;;0.37;;
2892;SDS011;1456;51.840;12.184;2022-12-29T01:43:57;0.30;;;0.20;;
2892;SDS011;1456;51.840;12.184;2022-12-29T01:51:38;0.30;;;0.20;;
2892;SDS011;1456;51.840;12.184;2022-12-29T01:54:13;0.40;;;0.40;;
2892;SDS011;1456;51.840;12.184;2022-12-29T01:56:43;0.30;;;0.27;;
2892;SDS011;1456;51.840;12.184;2022-12-29T01:59:11;0.30;;;0.30;;
2892;SDS011;1456;51.840;12.184;2022-12-29T02:01:41;0.40;;;0.40;;
2892;SDS011;1456;51.840;12.184;2022-12-29T02:04:11;0.30;;;0.30;;
2892;SDS011;1456;51.840;12.184;2022-12-29T02:06:41;0.93;;;0.40;;
2892;SDS011;1456;51.840;12.184;2022-12-29T02:09:17;0.73;;;0.73;;
2892;SDS011;1456;51.840;12.184;2022-12-29T02:11:43;0.30;;;0.30;;
2892;SDS011;1456;51.840;12.184;2022-12-29T02:14:12;0.40;;;0.40;;
2892;SDS011;1456;51.840;12.184;2022-12-29T02:16:46;0.40;;;0.40;;
2892;SDS011;1456;51.840;12.184;2022-12-29T02:22:44;0.73;;;0.60;;
2892;SDS011;1456;51.840;12.184;2022-12-29T02:30:57;0.30;;;0.30;;
2892;SDS011;1456;51.840;12.184;2022-12-29T02:36:31;0.30;;;0.30;;
2892;SDS011;1456;51.840;12.184;2022-12-29T02:39:05;0.30;;;0.30;;
2892;SDS011;1456;51.840;12.184;2022-12-29T02:50:19;0.30;;;0.30;;
2892;SDS011;1456;51.840;12.184;2022-12-29T02:53:23;0.50;;;0.50;;
2892;SDS011;1456;51.840;12.184;2022-12-29T02:56:04;0.40;;;0.40;;
2892;SDS011;1456;51.840;12.184;2022-12-29T02:58:29;0.40;;;0.40;;
2892;SDS011;1456;51.840;12.184;2022-12-29T03:06:22;0.77;;;0.70;;
2892;SDS011;1456;51.840;12.184;2022-12-29T03:11:32;0.60;;;0.50;;
2892;SDS011;1456;51.840;12.184;2022-12-29T03:20:45;0.30;;;0.30;;
2892;SDS011;1456;51.840;12.184;2022-12-29T03:23:20;0.50;;;0.50;;
2892;SDS011;1456;51.840;12.184;2022-12-29T03:25:50;0.37;;;0.37;;
2892;SDS011;1456;51.840;12.184;2022-12-29T03:28:23;0.50;;;0.50;;
2892;SDS011;1456;51.840;12.184;2022-12-29T03:30:53;0.77;;;0.77;;
2892;SDS011;1456;51.840;12.184;2022-12-29T03:33:21;0.97;;;0.97;;
2892;SDS011;1456;51.840;12.184;2022-12-29T03:35:50;0.57;;;0.53;;
2892;SDS011;1456;51.840;12.184;2022-12-29T03:38:21;0.30;;;0.30;;
2892;SDS011;1456;51.840;12.184;2022-12-29T03:41:01;0.83;;;0.60;;
2892;SDS011;1456;51.840;12.184;2022-12-29T03:43:32;0.90;;;0.67;;
2892;SDS011;1456;51.840;12.184;2022-12-29T03:45:59;0.40;;;0.40;;
2892;SDS011;1456;51.840;12.184;2022-12-29T03:48:25;0.30;;;0.30;;
2892;SDS011;1456;51.840;12.184;2022-12-29T03:50:50;0.30;;;0.30;;
2892;SDS011;1456;51.840;12.184;2022-12-29T03:53:16;0.33;;;0.33;;
2892;SDS011;1456;51.840;12.184;2022-12-29T03:55:42;0.30;;;0.30;;
2892;SDS011;1456;51.840;12.184;2022-12-29T03:58:08;0.37;;;0.37;;
2892;SDS011;1456;51.840;12.184;2022-12-29T04:00:34;0.50;;;0.50;;
2892;SDS011;1456;51.840;12.184;2022-12-29T04:03:00;0.30;;;0.30;;
2892;SDS011;1456;51.840;12.184;2022-12-29T04:05:25;0.40;;;0.40;;
2892;SDS011;1456;51.840;12.184;2022-12-29T04:07:51;0.30;;;0.30;;
2892;SDS011;1456;51.840;12.184;2022-12-29T04:10:17;0.40;;;0.40;;
2892;SDS011;1456;51.840;12.184;2022-12-29T04:12:43;0.93;;;0.50;;
2892;SDS011;1456;51.840;12.184;2022-12-29T04:15:10;0.30;;;0.30;;
2892;SDS011;1456;51.840;12.184;2022-12-29T04:17:36;1.43;;;0.50;;
2892;SDS011;1456;51.840;12.184;2022-12-29T04:20:03;0.30;;;0.30;;
2892;SDS011;1456;51.840;12.184;2022-12-29T04:22:48;0.40;;;0.40;;
2892;SDS011;1456;51.840;12.184;2022-12-29T04:25:14;0.30;;;0.30;;
2892;SDS011;1456;51.840;12.184;2022-12-29T04:27:40;0.80;;;0.80;;
2892;SDS011;1456;51.840;12.184;2022-12-29T04:30:07;0.47;;;0.47;;
2892;SDS011;1456;51.840;12.184;2022-12-29T04:32:33;0.40;;;0.33;;
2892;SDS011;1456;51.840;12.184;2022-12-29T04:34:59;0.73;;;0.50;;
2892;SDS011;1456;51.840;12.184;2022-12-29T04:37:24;1.33;;;0.80;;
2892;SDS011;1456;51.840;12.184;2022-12-29T04:39:50;0.40;;;0.40;;
2892;SDS011;1456;51.840;12.184;2022-12-29T04:42:16;0.30;;;0.30;;
2892;SDS011;1456;51.840;12.184;2022-12-29T04:44:42;0.30;;;0.30;;
2892;SDS011;1456;51.840;12.184;2022-12-29T04:47:07;0.60;;;0.60;;
2892;SDS011;1456;51.840;12.184;2022-12-29T04:49:36;0.30;;;0.30;;
2892;SDS011;1456;51.840;12.184;2022-12-29T04:52:03;0.30;;;0.30;;
2892;SDS011;1456;51.840;12.184;2022-12-29T04:54:29;0.30;;;0.30;;
2892;SDS011;1456;51.840;12.184;2022-12-29T04:56:54;0.40;;;0.40;;
2892;SDS011;1456;51.840;12.184;2022-12-29T04:59:20;1.23;;;0.77;;
2892;SDS011;1456;51.840;12.184;2022-12-29T05:01:46;0.50;;;0.30;;
2892;SDS011;1456;51.840;12.184;2022-12-29T05:04:11;0.67;;;0.50;;
2892;SDS011;1456;51.840;12.184;2022-12-29T05:06:40;0.40;;;0.40;;
2892;SDS011;1456;51.840;12.184;2022-12-29T05:09:07;0.30;;;0.30;;
2892;SDS011;1456;51.840;12.184;2022-12-29T05:11:34;0.60;;;0.50;;
2892;SDS011;1456;51.840;12.184;2022-12-29T05:14:00;0.30;;;0.30;;
2892;SDS011;1456;51.840;12.184;2022-12-29T05:16:26;2.30;;;0.80;;
2892;SDS011;1456;51.840;12.184;2022-12-29T05:18:51;0.30;;;0.30;;
2892;SDS011;1456;51.840;12.184;2022-12-29T05:21:17;0.37;;;0.37;;
2892;SDS011;1456;51.840;12.184;2022-12-29T05:23:43;0.30;;;0.30;;
2892;SDS011;1456;51.840;12.184;2022-12-29T05:26:09;0.33;;;0.33;;
2892;SDS011;1456;51.840;12.184;2022-12-29T05:28:34;1.23;;;0.63;;
2892;SDS011;1456;51.840;12.184;2022-12-29T05:31:00;0.50;;;0.50;;
2892;SDS011;1456;51.840;12.184;2022-12-29T05:33:26;0.40;;;0.40;;
2892;SDS011;1456;51.840;12.184;2022-12-29T05:35:51;0.30;;;0.30;;
2892;SDS011;1456;51.840;12.184;2022-12-29T05:38:17;0.40;;;0.40;;
2892;SDS011;1456;51.840;12.184;2022-12-29T05:40:43;3.53;;;0.60;;
2892;SDS011;1456;51.840;12.184;2022-12-29T05:43:09;0.30;;;0.30;;
2892;SDS011;1456;51.840;12.184;2022-12-29T05:45:35;0.30;;;0.30;;
2892;SDS011;1456;51.840;12.184;2022-12-29T05:48:01;0.30;;;0.30;;
2892;SDS011;1456;51.840;12.184;2022-12-29T05:50:27;0.30;;;0.30;;
2892;SDS011;1456;51.840;12.184;2022-12-29T05:52:53;0.40;;;0.40;;
2892;SDS011;1456;51.840;12.184;2022-12-29T05:55:19;0.30;;;0.27;;
2892;SDS011;1456;51.840;12.184;2022-12-29T05:57:46;0.40;;;0.40;;
2892;SDS011;1456;51.840;12.184;2022-12-29T06:00:12;0.30;;;0.30;;
2892;SDS011;1456;51.840;12.184;2022-12-29T06:02:39;0.40;;;0.40;;
2892;SDS011;1456;51.840;12.184;2022-12-29T06:05:04;0.33;;;0.33;;
2892;SDS011;1456;51.840;12.184;2022-12-29T06:07:31;0.30;;;0.20;;
2892;SDS011;1456;51.840;12.184;2022-12-29T06:09:56;0.50;;;0.50;;
2892;SDS011;1456;51.840;12.184;2022-12-29T06:12:22;0.30;;;0.20;;
2892;SDS011;1456;51.840;12.184;2022-12-29T06:14:48;0.40;;;0.40;;
2892;SDS011;1456;51.840;12.184;2022-12-29T06:17:14;0.60;;;0.60;;
2892;SDS011;1456;51.840;12.184;2022-12-29T06:19:40;0.30;;;0.30;;
2892;SDS011;1456;51.840;12.184;2022-12-29T06:22:06;0.30;;;0.30;;
2892;SDS011;1456;51.840;12.184;2022-12-29T06:24:37;0.30;;;0.20;;
2892;SDS011;1456;51.840;12.184;2022-12-29T06:27:04;0.30;;;0.30;;
2892;SDS011;1456;51.840;12.184;2022-12-29T06:29:29;0.73;;;0.73;;
2892;SDS011;1456;51.840;12.184;2022-12-29T06:31:55;0.40;;;0.40;;
2892;SDS011;1456;51.840;12.184;2022-12-29T06:34:23;1.00;;;0.97;;
2892;SDS011;1456;51.840;12.184;2022-12-29T06:36:50;0.30;;;0.30;;
2892;SDS011;1456;51.840;12.184;2022-12-29T06:39:16;0.53;;;0.53;;
2892;SDS011;1456;51.840;12.184;2022-12-29T06:41:42;0.30;;;0.30;;
2892;SDS011;1456;51.840;12.184;2022-12-29T06:44:07;0.87;;;0.87;;
2892;SDS011;1456;51.840;12.184;2022-12-29T06:46:33;0.30;;;0.30;;
2892;SDS011;1456;51.840;12.184;2022-12-29T06:48:59;0.30;;;0.23;;
2892;SDS011;1456;51.840;12.184;2022-12-29T06:51:25;1.23;;;0.60;;
2892;SDS011;1456;51.840;12.184;2022-12-29T06:53:50;0.30;;;0.30;;
2892;SDS011;1456;51.840;12.184;2022-12-29T06:56:16;0.30;;;0.27;;
2892;SDS011;1456;51.840;12.184;2022-12-29T06:58:42;1.27;;;1.23;;
2892;SDS011;1456;51.840;12.184;2022-12-29T07:01:08;0.47;;;0.47;;
2892;SDS011;1456;51.840;12.184;2022-12-29T07:03:35;0.30;;;0.30;;
2892;SDS011;1456;51.840;12.184;2022-12-29T07:06:01;0.40;;;0.40;;
2892;SDS011;1456;51.840;12.184;2022-12-29T07:08:27;0.30;;;0.30;;
2892;SDS011;1456;51.840;12.184;2022-12-29T07:10:53;0.30;;;0.30;;
2892;SDS011;1456;51.840;12.184;2022-12-29T07:13:19;1.33;;;0.67;;
2892;SDS011;1456;51.840;12.184;2022-12-29T07:15:45;2.20;;;0.30;;
2892;SDS011;1456;51.840;12.184;2022-12-29T07:18:11;0.60;;;0.60;;
2892;SDS011;1456;51.840;12.184;2022-12-29T07:20:36;0.80;;;0.80;;
2892;SDS011;1456;51.840;12.184;2022-12-29T07:23:02;0.27;;;0.27;;
2892;SDS011;1456;51.840;12.184;2022-12-29T07:25:28;0.30;;;0.30;;
2892;SDS011;1456;51.840;12.184;2022-12-29T07:27:55;0.47;;;0.47;;
2892;SDS011;1456;51.840;12.184;2022-12-29T07:30:21;0.30;;;0.20;;
2892;SDS011;1456;51.840;12.184;2022-12-29T07:32:46;0.20;;;0.20;;
2892;SDS011;1456;51.840;12.184;2022-12-29T07:35:12;0.80;;;0.73;;
2892;SDS011;1456;51.840;12.184;2022-12-29T07:37:38;0.50;;;0.50;;
2892;SDS011;1456;51.840;12.184;2022-12-29T07:40:03;0.40;;;0.40;;
2892;SDS011;1456;51.840;12.184;2022-12-29T07:42:30;0.60;;;0.60;;
2892;SDS011;1456;51.840;12.184;2022-12-29T07:44:56;0.30;;;0.30;;
2892;SDS011;1456;51.840;12.184;2022-12-29T07:47:22;0.50;;;0.50;;
2892;SDS011;1456;51.840;12.184;2022-12-29T07:49:47;0.30;;;0.30;;
2892;SDS011;1456;51.840;12.184;2022-12-29T07:52:13;0.40;;;0.40;;
2892;SDS011;1456;51.840;12.184;2022-12-29T07:54:39;0.30;;;0.30;;
2892;SDS011;1456;51.840;12.184;2022-12-29T07:57:06;0.50;;;0.50;;
2892;SDS011;1456;51.840;12.184;2022-12-29T07:59:34;0.50;;;0.50;;
2892;SDS011;1456;51.840;12.184;2022-12-29T08:02:00;0.63;;;0.63;;
2892;SDS011;1456;51.840;12.184;2022-12-29T08:04:25;0.40;;;0.40;;
2892;SDS011;1456;51.840;12.184;2022-12-29T08:06:51;0.30;;;0.30;;
2892;SDS011;1456;51.840;12.184;2022-12-29T08:09:17;0.33;;;0.33;;
2892;SDS011;1456;51.840;12.184;2022-12-29T08:11:42;0.30;;;0.20;;
2892;SDS011;1456;51.840;12.184;2022-12-29T08:14:09;0.30;;;0.30;;
2892;SDS011;1456;51.840;12.184;2022-12-29T08:16:34;0.23;;;0.20;;
2892;SDS011;1456;51.840;12.184;2022-12-29T08:19:00;0.30;;;0.30;;
2892;SDS011;1456;51.840;12.184;2022-12-29T08:21:29;0.30;;;0.27;;
2892;SDS011;1456;51.840;12.184;2022-12-29T08:23:55;0.30;;;0.30;;
2892;SDS011;1456;51.840;12.184;2022-12-29T08:26:21;0.30;;;0.30;;
2892;SDS011;1456;51.840;12.184;2022-12-29T08:28:47;0.30;;;0.30;;
2892;SDS011;1456;51.840;12.184;2022-12-29T08:31:13;0.87;;;0.87;;
2892;SDS011;1456;51.840;12.184;2022-12-29T08:33:38;0.60;;;0.53;;
2892;SDS011;1456;51.840;12.184;2022-12-29T08:36:05;0.30;;;0.20;;
2892;SDS011;1456;51.840;12.184;2022-12-29T08:38:35;0.77;;;0.77;;
2892;SDS011;1456;51.840;12.184;2022-12-29T08:41:01;0.30;;;0.30;;
2892;SDS011;1456;51.840;12.184;2022-12-29T08:43:27;0.53;;;0.53;;
2892;SDS011;1456;51.840;12.184;2022-12-29T08:45:54;0.30;;;0.30;;
2892;SDS011;1456;51.840;12.184;2022-12-29T08:48:21;0.40;;;0.30;;
2892;SDS011;1456;51.840;12.184;2022-12-29T08:50:47;0.40;;;0.40;;
2892;SDS011;1456;51.840;12.184;2022-12-29T08:53:14;0.30;;;0.30;;
2892;SDS011;1456;51.840;12.184;2022-12-29T08:55:40;0.77;;;0.43;;
2892;SDS011;1456;51.840;12.184;2022-12-29T08:58:06;0.40;;;0.40;;
2892;SDS011;1456;51.840;12.184;2022-12-29T09:00:39;0.30;;;0.30;;
2892;SDS011;1456;51.840;12.184;2022-12-29T09:03:06;0.30;;;0.30;;
2892;SDS011;1456;51.840;12.184;2022-12-29T09:05:31;0.30;;;0.30;;
2892;SDS011;1456;51.840;12.184;2022-12-29T09:07:57;0.30;;;0.30;;
2892;SDS011;1456;51.840;12.184;2022-12-29T09:10:22;0.40;;;0.40;;
2892;SDS011;1456;51.840;12.184;2022-12-29T09:12:48;0.60;;;0.60;;
2892;SDS011;1456;51.840;12.184;2022-12-29T09:15:15;0.60;;;0.60;;
2892;SDS011;1456;51.840;12.184;2022-12-29T09:17:41;0.27;;;0.23;;
2892;SDS011;1456;51.840;12.184;2022-12-29T09:20:10;0.30;;;0.30;;
2892;SDS011;1456;51.840;12.184;2022-12-29T09:22:37;0.70;;;0.40;;
2892;SDS011;1456;51.840;12.184;2022-12-29T09:25:03;0.30;;;0.30;;
2892;SDS011;1456;51.840;12.184;2022-12-29T09:27:29;0.30;;;0.30;;
2892;SDS011;1456;51.840;12.184;2022-12-29T09:29:55;0.30;;;0.30;;
2892;SDS011;1456;51.840;12.184;2022-12-29T09:32:21;0.50;;;0.50;;
2892;SDS011;1456;51.840;12.184;2022-12-29T09:34:48;0.40;;;0.40;;
2892;SDS011;1456;51.840;12.184;2022-12-29T09:37:14;0.40;;;0.40;;
2892;SDS011;1456;51.840;12.184;2022-12-29T09:39:40;0.30;;;0.30;;
2892;SDS011;1456;51.840;12.184;2022-12-29T09:42:28;0.40;;;0.40;;
2892;SDS011;1456;51.840;12.184;2022-12-29T09:47:57;0.40;;;0.40;;
2892;SDS011;1456;51.840;12.184;2022-12-29T09:50:57;0.50;;;0.50;;
2892;SDS011;1456;51.840;12.184;2022-12-29T09:53:21;0.40;;;0.40;;
2892;SDS011;1456;51.840;12.184;2022-12-29T09:55:54;0.50;;;0.50;;
2892;SDS011;1456;51.840;12.184;2022-12-29T10:01:46;0.60;;;0.60;;
2892;SDS011;1456;51.840;12.184;2022-12-29T10:04:05;0.50;;;0.50;;
2892;SDS011;1456;51.840;12.184;2022-12-29T10:06:34;3.23;;;0.67;;
2892;SDS011;1456;51.840;12.184;2022-12-29T10:09:19;0.50;;;0.50;;
2892;SDS011;1456;51.840;12.184;2022-12-29T10:17:15;0.80;;;0.80;;
2892;SDS011;1456;51.840;12.184;2022-12-29T10:26:16;1.27;;;1.17;;
2892;SDS011;1456;51.840;12.184;2022-12-29T10:28:49;1.63;;;1.53;;
2892;SDS011;1456;51.840;12.184;2022-12-29T10:31:32;0.50;;;0.50;;
2892;SDS011;1456;51.840;12.184;2022-12-29T10:34:25;1.40;;;0.80;;
2892;SDS011;1456;51.840;12.184;2022-12-29T10:37:00;1.03;;;0.87;;
2892;SDS011;1456;51.840;12.184;2022-12-29T10:40:13;1.43;;;1.20;;
2892;SDS011;1456;51.840;12.184;2022-12-29T10:43:15;0.60;;;0.60;;
2892;SDS011;1456;51.840;12.184;2022-12-29T10:45:48;1.43;;;1.43;;
2892;SDS011;1456;51.840;12.184;2022-12-29T10:48:19;0.60;;;0.60;;
2892;SDS011;1456;51.840;12.184;2022-12-29T10:50:47;0.67;;;0.60;;
2892;SDS011;1456;51.840;12.184;2022-12-29T10:53:17;4.83;;;2.00;;
2892;SDS011;1456;51.840;12.184;2022-12-29T10:55:47;2.10;;;0.87;;
2892;SDS011;1456;51.840;12.184;2022-12-29T10:58:14;0.70;;;0.70;;
2892;SDS011;1456;51.840;12.184;2022-12-29T11:00:41;0.47;;;0.47;;
2892;SDS011;1456;51.840;12.184;2022-12-29T11:05:56;1.03;;;1.03;;
2892;SDS011;1456;51.840;12.184;2022-12-29T11:08:36;0.40;;;0.40;;
2892;SDS011;1456;51.840;12.184;2022-12-29T11:11:09;1.77;;;1.67;;
2892;SDS011;1456;51.840;12.184;2022-12-29T11:13:46;0.60;;;0.60;;
2892;SDS011;1456;51.840;12.184;2022-12-29T11:16:13;0.80;;;0.80;;
2892;SDS011;1456;51.840;12.184;2022-12-29T11:18:40;0.50;;;0.50;;
2892;SDS011;1456;51.840;12.184;2022-12-29T11:24:04;0.50;;;0.50;;
2892;SDS011;1456;51.840;12.184;2022-12-29T11:26:43;0.50;;;0.50;;
2892;SDS011;1456;51.840;12.184;2022-12-29T11:34:23;0.60;;;0.60;;
2892;SDS011;1456;51.840;12.184;2022-12-29T11:37:20;0.80;;;0.80;;
2892;SDS011;1456;51.840;12.184;2022-12-29T11:42:35;0.50;;;0.50;;
2892;SDS011;1456;51.840;12.184;2022-12-29T11:45:24;0.60;;;0.60;;
2892;SDS011;1456;51.840;12.184;2022-12-29T11:47:53;0.50;;;0.50;;
2892;SDS011;1456;51.840;12.184;2022-12-29T11:50:22;0.43;;;0.43;;
2892;SDS011;1456;51.840;12.184;2022-12-29T11:53:01;0.50;;;0.50;;
2892;SDS011;1456;51.840;12.184;2022-12-29T11:55:36;0.40;;;0.40;;
2892;SDS011;1456;51.840;12.184;2022-12-29T11:58:02;2.73;;;0.70;;
2892;SDS011;1456;51.840;12.184;2022-12-29T12:00:39;0.47;;;0.47;;
2892;SDS011;1456;51.840;12.184;2022-12-29T12:06:00;0.50;;;0.50;;
2892;SDS011;1456;51.840;12.184;2022-12-29T12:08:37;0.40;;;0.40;;
2892;SDS011;1456;51.840;12.184;2022-12-29T12:11:16;0.70;;;0.70;;
2892;SDS011;1456;51.840;12.184;2022-12-29T12:14:02;3.27;;;0.70;;
2892;SDS011;1456;51.840;12.184;2022-12-29T12:17:04;0.60;;;0.60;;
2892;SDS011;1456;51.840;12.184;2022-12-29T12:19:51;0.50;;;0.50;;
2892;SDS011;1456;51.840;12.184;2022-12-29T12:24:59;0.70;;;0.70;;
2892;SDS011;1456;51.840;12.184;2022-12-29T12:32:46;0.90;;;0.90;;
2892;SDS011;1456;51.840;12.184;2022-12-29T12:41:00;1.50;;;1.50;;
2892;SDS011;1456;51.840;12.184;2022-12-29T12:43:37;1.40;;;1.40;;
2892;SDS011;1456;51.840;12.184;2022-12-29T12:46:36;1.30;;;1.30;;
2892;SDS011;1456;51.840;12.184;2022-12-29T12:49:34;2.13;;;2.07;;
2892;SDS011;1456;51.840;12.184;2022-12-29T12:52:33;1.50;;;1.50;;
2892;SDS011;1456;51.840;12.184;2022-12-29T12:57:44;1.33;;;1.33;;
2892;SDS011;1456;51.840;12.184;2022-12-29T13:00:33;1.30;;;1.30;;
2892;SDS011;1456;51.840;12.184;2022-12-29T13:31:00;1.40;;;1.40;;
2892;SDS011;1456;51.840;12.184;2022-12-29T13:36:44;1.40;;;1.40;;
2892;SDS011;1456;51.840;12.184;2022-12-29T13:39:18;1.50;;;1.50;;
2892;SDS011;1456;51.840;12.184;2022-12-29T13:41:49;2.10;;;2.10;;
2892;SDS011;1456;51.840;12.184;2022-12-29T13:44:23;1.90;;;1.90;;
2892;SDS011;1456;51.840;12.184;2022-12-29T13:46:59;2.60;;;2.60;;
2892;SDS011;1456;51.840;12.184;2022-12-29T13:49:31;2.00;;;2.00;;
2892;SDS011;1456;51.840;12.184;2022-12-29T13:52:00;1.80;;;1.80;;
2892;SDS011;1456;51.840;12.184;2022-12-29T13:54:51;1.60;;;1.60;;
2892;SDS011;1456;51.840;12.184;2022-12-29T13:57:39;1.90;;;1.90;;
2892;SDS011;1456;51.840;12.184;2022-12-29T14:00:17;2.20;;;2.20;;
2892;SDS011;1456;51.840;12.184;2022-12-29T14:05:32;2.07;;;2.07;;
2892;SDS011;1456;51.840;12.184;2022-12-29T14:08:01;1.50;;;1.50;;
2892;SDS011;1456;51.840;12.184;2022-12-29T14:10:34;1.00;;;1.00;;
2892;SDS011;1456;51.840;12.184;2022-12-29T14:13:04;1.13;;;1.10;;
2892;SDS011;1456;51.840;12.184;2022-12-29T14:15:40;1.20;;;1.20;;
2892;SDS011;1456;51.840;12.184;2022-12-29T14:18:16;1.37;;;1.37;;
2892;SDS011;1456;51.840;12.184;2022-12-29T14:20:52;0.83;;;0.83;;
2892;SDS011;1456;51.840;12.184;2022-12-29T14:23:30;0.90;;;0.90;;
2892;SDS011;1456;51.840;12.184;2022-12-29T14:28:31;1.13;;;1.13;;
2892;SDS011;1456;51.840;12.184;2022-12-29T14:31:00;0.97;;;0.97;;
2892;SDS011;1456;51.840;12.184;2022-12-29T14:33:29;1.10;;;1.10;;
2892;SDS011;1456;51.840;12.184;2022-12-29T14:36:21;0.90;;;0.90;;
2892;SDS011;1456;51.840;12.184;2022-12-29T14:38:59;1.20;;;1.20;;
2892;SDS011;1456;51.840;12.184;2022-12-29T14:44:18;1.30;;;1.30;;
2892;SDS011;1456;51.840;12.184;2022-12-29T14:49:24;1.10;;;1.10;;
2892;SDS011;1456;51.840;12.184;2022-12-29T14:51:53;1.30;;;1.30;;
2892;SDS011;1456;51.840;12.184;2022-12-29T15:00:01;1.50;;;1.50;;
2892;SDS011;1456;51.840;12.184;2022-12-29T15:02:33;2.33;;;2.33;;
2892;SDS011;1456;51.840;12.184;2022-12-29T15:05:10;2.30;;;2.30;;
2892;SDS011;1456;51.840;12.184;2022-12-29T15:08:17;2.27;;;2.17;;
2892;SDS011;1456;51.840;12.184;2022-12-29T15:11:01;1.20;;;1.20;;
2892;SDS011;1456;51.840;12.184;2022-12-29T15:13:36;2.30;;;2.20;;
2892;SDS011;1456;51.840;12.184;2022-12-29T15:16:21;1.47;;;1.47;;
2892;SDS011;1456;51.840;12.184;2022-12-29T15:18:47;1.43;;;1.43;;
2892;SDS011;1456;51.840;12.184;2022-12-29T15:21:14;4.10;;;1.73;;
2892;SDS011;1456;51.840;12.184;2022-12-29T15:23:42;1.30;;;1.30;;
2892;SDS011;1456;51.840;12.184;2022-12-29T15:26:10;1.73;;;1.63;;
2892;SDS011;1456;51.840;12.184;2022-12-29T15:28:40;1.30;;;1.30;;
2892;SDS011;1456;51.840;12.184;2022-12-29T15:33:49;1.70;;;1.60;;
2892;SDS011;1456;51.840;12.184;2022-12-29T15:38:47;1.87;;;1.77;;
2892;SDS011;1456;51.840;12.184;2022-12-29T15:47:19;1.73;;;1.73;;
2892;SDS011;1456;51.840;12.184;2022-12-29T15:49:48;0.80;;;0.80;;
2892;SDS011;1456;51.840;12.184;2022-12-29T15:52:18;1.10;;;1.10;;
2892;SDS011;1456;51.840;12.184;2022-12-29T15:54:47;1.10;;;1.10;;
2892;SDS011;1456;51.840;12.184;2022-12-29T15:57:22;1.20;;;1.20;;
2892;SDS011;1456;51.840;12.184;2022-12-29T15:59:52;9.03;;;1.50;;
2892;SDS011;1456;51.840;12.184;2022-12-29T16:02:18;1.47;;;1.47;;
2892;SDS011;1456;51.840;12.184;2022-12-29T16:04:46;1.03;;;1.03;;
2892;SDS011;1456;51.840;12.184;2022-12-29T16:10:21;1.07;;;1.07;;
2892;SDS011;1456;51.840;12.184;2022-12-29T16:12:49;0.70;;;0.70;;
2892;SDS011;1456;51.840;12.184;2022-12-29T16:15:15;1.13;;;1.13;;
2892;SDS011;1456;51.840;12.184;2022-12-29T16:17:50;0.80;;;0.80;;
2892;SDS011;1456;51.840;12.184;2022-12-29T16:20:19;0.70;;;0.70;;
2892;SDS011;1456;51.840;12.184;2022-12-29T16:22:50;1.63;;;1.63;;
2892;SDS011;1456;51.840;12.184;2022-12-29T16:25:31;0.80;;;0.80;;
2892;SDS011;1456;51.840;12.184;2022-12-29T16:27:59;0.90;;;0.90;;
2892;SDS011;1456;51.840;12.184;2022-12-29T16:30:30;0.80;;;0.80;;
2892;SDS011;1456;51.840;12.184;2022-12-29T16:33:03;0.70;;;0.70;;
2892;SDS011;1456;51.840;12.184;2022-12-29T16:35:45;1.27;;;1.27;;
2892;SDS011;1456;51.840;12.184;2022-12-29T16:38:15;2.00;;;1.90;;
2892;SDS011;1456;51.840;12.184;2022-12-29T16:40:53;0.50;;;0.50;;
2892;SDS011;1456;51.840;12.184;2022-12-29T16:50:45;0.40;;;0.40;;
2892;SDS011;1456;51.840;12.184;2022-12-29T16:53:18;0.50;;;0.50;;
2892;SDS011;1456;51.840;12.184;2022-12-29T16:55:51;0.30;;;0.30;;
2892;SDS011;1456;51.840;12.184;2022-12-29T16:58:20;0.40;;;0.40;;
2892;SDS011;1456;51.840;12.184;2022-12-29T17:00:49;0.47;;;0.47;;
2892;SDS011;1456;51.840;12.184;2022-12-29T17:03:51;0.30;;;0.30;;
2892;SDS011;1456;51.840;12.184;2022-12-29T17:06:19;5.60;;;0.73;;
2892;SDS011;1456;51.840;12.184;2022-12-29T17:08:46;0.30;;;0.30;;
2892;SDS011;1456;51.840;12.184;2022-12-29T17:11:20;0.40;;;0.40;;
2892;SDS011;1456;51.840;12.184;2022-12-29T17:14:05;0.30;;;0.23;;
2892;SDS011;1456;51.840;12.184;2022-12-29T17:16:45;0.30;;;0.30;;
2892;SDS011;1456;51.840;12.184;2022-12-29T17:19:15;0.30;;;0.30;;
2892;SDS011;1456;51.840;12.184;2022-12-29T17:21:54;0.30;;;0.30;;
2892;SDS011;1456;51.840;12.184;2022-12-29T17:24:20;0.50;;;0.50;;
2892;SDS011;1456;51.840;12.184;2022-12-29T17:26:47;0.30;;;0.27;;
2892;SDS011;1456;51.840;12.184;2022-12-29T17:29:19;0.40;;;0.40;;
2892;SDS011;1456;51.840;12.184;2022-12-29T17:31:52;0.40;;;0.40;;
2892;SDS011;1456;51.840;12.184;2022-12-29T17:34:18;0.37;;;0.37;;
2892;SDS011;1456;51.840;12.184;2022-12-29T17:36:44;0.60;;;0.50;;
2892;SDS011;1456;51.840;12.184;2022-12-29T17:39:10;0.63;;;0.63;;
2892;SDS011;1456;51.840;12.184;2022-12-29T17:41:37;0.43;;;0.43;;
2892;SDS011;1456;51.840;12.184;2022-12-29T17:44:03;0.40;;;0.40;;
2892;SDS011;1456;51.840;12.184;2022-12-29T17:46:29;0.40;;;0.30;;
2892;SDS011;1456;51.840;12.184;2022-12-29T17:48:55;0.50;;;0.50;;
2892;SDS011;1456;51.840;12.184;2022-12-29T17:51:21;0.57;;;0.40;;
2892;SDS011;1456;51.840;12.184;2022-12-29T17:53:47;0.30;;;0.30;;
2892;SDS011;1456;51.840;12.184;2022-12-29T17:56:14;0.30;;;0.30;;
2892;SDS011;1456;51.840;12.184;2022-12-29T17:58:40;0.30;;;0.30;;
2892;SDS011;1456;51.840;12.184;2022-12-29T18:01:06;0.70;;;0.70;;